Saint Clair, Minnesota
Current Conditions -  °F | °C
As of 6:55 AM on Thursday 23 Oct 2014 (Local Time) from KMKT Reporting Station
Overcast Overcast  
Wind Chill: 52°   Ceiling: 1500
Heat Index: 52°   Visibility: 5mi
Dew Point: 46°   Wind: 7mph
Humidity: 82%   Direction: 170°S
Pressure: 29.99"   Gusts: NA
Location:  44.08°N, 93.86°W
Report Text: KMKT 231155Z AUTO 17006KT 5SM SCT005 BKN015 OVC026 11/08 A2999 RMK AO1 10140 20110 57003
Loading
Personal Weather Stations






























Interactive Weather Map
Tropical Storm Tracking
New forecast layout! Learn more

10-Day Weather Forecast

Advertisements
Track Severe Weather on mobile